createdAt,value
2018-11-06T00:01:31.282Z,22.17
2018-11-06T00:04:02.368Z,23.92
2018-11-06T00:06:33.087Z,25.45
2018-11-06T00:09:01.404Z,24.00
2018-11-06T00:11:29.656Z,17.65
2018-11-06T00:13:57.911Z,21.00
2018-11-06T00:16:26.165Z,21.45
2018-11-06T00:18:54.436Z,20.95
2018-11-06T00:21:22.678Z,18.40
2018-11-06T00:23:50.935Z,23.32
2018-11-06T00:26:19.179Z,19.85
2018-11-06T00:28:47.442Z,21.65
2018-11-06T00:31:15.719Z,19.25
2018-11-06T00:33:43.987Z,21.48
2018-11-06T00:36:12.246Z,20.70
2018-11-06T00:38:40.522Z,22.67
2018-11-06T00:41:08.786Z,22.40
2018-11-06T00:43:37.093Z,17.12
2018-11-06T00:46:05.654Z,20.75
2018-11-06T00:48:33.936Z,20.75
2018-11-06T00:51:02.218Z,19.10
2018-11-06T00:53:30.490Z,22.22
2018-11-06T00:55:58.783Z,23.00
2018-11-06T00:58:27.082Z,18.90
2018-11-06T01:00:55.342Z,20.32
2018-11-06T01:03:27.858Z,19.10
2018-11-06T01:05:56.200Z,20.48
2018-11-06T01:08:24.483Z,17.55
2018-11-06T01:10:52.765Z,20.70
2018-11-06T01:13:21.019Z,19.27
2018-11-06T01:15:49.283Z,21.73
2018-11-06T01:18:17.585Z,19.87
2018-11-06T01:20:45.826Z,19.60
2018-11-06T01:23:14.106Z,18.52
2018-11-06T01:25:42.354Z,23.42
2018-11-06T01:28:10.619Z,21.27
2018-11-06T01:30:38.932Z,24.02
2018-11-06T01:33:07.172Z,20.02
2018-11-06T01:35:35.447Z,22.20
2018-11-06T01:38:03.729Z,27.32
2018-11-06T01:40:31.986Z,22.73
2018-11-06T01:43:00.277Z,24.25
2018-11-06T01:45:28.509Z,28.38
2018-11-06T01:47:56.992Z,23.45
2018-11-06T01:50:25.243Z,22.73
2018-11-06T01:52:53.523Z,19.42
2018-11-06T01:55:21.799Z,23.35
2018-11-06T01:57:50.058Z,19.20
2018-11-06T02:00:19.294Z,19.07
2018-11-06T02:02:47.726Z,22.60
2018-11-06T02:05:17.301Z,17.48
2018-11-06T02:07:46.925Z,22.90
2018-11-06T02:10:15.755Z,18.20
2018-11-06T02:12:44.957Z,15.43
2018-11-06T02:15:13.244Z,19.45
2018-11-06T02:17:42.659Z,20.30
2018-11-06T02:20:11.750Z,21.70
2018-11-06T02:22:41.046Z,17.73
2018-11-06T02:25:10.034Z,19.02
2018-11-06T02:27:38.363Z,18.92
2018-11-06T02:30:08.234Z,17.32
2018-11-06T02:32:36.631Z,21.93
2018-11-06T02:35:05.095Z,16.30
2018-11-06T02:37:33.391Z,19.32
2018-11-06T02:40:01.783Z,16.57
2018-11-06T02:42:30.065Z,18.90
2018-11-06T02:44:58.344Z,15.38
2018-11-06T02:47:26.758Z,16.90
2018-11-06T02:49:55.035Z,16.95
2018-11-06T02:52:23.307Z,20.23
2018-11-06T02:54:51.641Z,19.42
2018-11-06T02:57:19.898Z,17.73
2018-11-06T02:59:48.211Z,16.35
2018-11-06T03:02:16.514Z,23.18
2018-11-06T03:04:44.813Z,21.20
2018-11-06T03:07:13.075Z,18.27
2018-11-06T03:09:41.349Z,17.65
2018-11-06T03:12:09.624Z,15.25
2018-11-06T03:14:37.926Z,15.80
2018-11-06T03:17:06.285Z,17.40
2018-11-06T03:19:34.537Z,17.73
2018-11-06T03:22:02.731Z,21.40
2018-11-06T03:24:31.011Z,22.80
2018-11-06T03:26:59.328Z,20.68
2018-11-06T03:29:27.562Z,17.73
2018-11-06T03:31:55.864Z,19.75
2018-11-06T03:34:24.150Z,14.95
2018-11-06T03:36:52.430Z,13.35
2018-11-06T03:39:20.682Z,14.47
2018-11-06T03:41:48.967Z,13.03
2018-11-06T03:44:17.321Z,13.83
2018-11-06T03:46:45.589Z,15.95
2018-11-06T03:49:14.214Z,14.55
2018-11-06T03:51:42.486Z,15.50
2018-11-06T03:54:10.796Z,11.73
2018-11-06T03:56:39.106Z,12.73
2018-11-06T03:59:07.378Z,14.28
2018-11-06T04:01:35.662Z,13.18
2018-11-06T04:04:03.902Z,14.00
2018-11-06T04:06:32.198Z,13.68
2018-11-06T04:09:00.517Z,11.78
2018-11-06T04:11:28.765Z,13.85
2018-11-06T04:13:57.019Z,12.35
2018-11-06T04:16:25.283Z,13.03
2018-11-06T04:18:53.559Z,14.63
2018-11-06T04:21:34.228Z,12.33
2018-11-06T04:24:02.609Z,11.60
2018-11-06T04:26:30.931Z,12.15
2018-11-06T04:28:59.234Z,13.80
2018-11-06T04:31:27.532Z,12.63
2018-11-06T04:33:55.784Z,14.03
2018-11-06T04:36:24.044Z,13.98
2018-11-06T04:38:52.310Z,15.95
2018-11-06T04:41:20.539Z,14.25
2018-11-06T04:43:48.873Z,14.60
2018-11-06T04:46:17.147Z,11.75
2018-11-06T04:48:45.368Z,15.53
2018-11-06T04:51:13.626Z,12.18
2018-11-06T04:53:41.873Z,11.25
2018-11-06T04:56:10.170Z,13.83
2018-11-06T04:58:38.427Z,16.15
2018-11-06T05:01:06.681Z,12.28
2018-11-06T05:03:34.978Z,13.15
2018-11-06T05:06:03.200Z,12.20
2018-11-06T05:08:31.451Z,12.25
2018-11-06T05:10:59.765Z,12.53
2018-11-06T05:13:28.015Z,14.28
2018-11-06T05:15:56.272Z,10.72
2018-11-06T05:18:24.517Z,11.90
2018-11-06T05:20:52.765Z,13.60
2018-11-06T05:23:21.015Z,35.30
2018-11-06T05:25:49.359Z,14.20
2018-11-06T05:28:17.648Z,11.12
2018-11-06T05:30:45.934Z,13.03
2018-11-06T05:33:14.270Z,13.13
2018-11-06T05:35:42.514Z,10.90
2018-11-06T05:38:10.771Z,14.00
2018-11-06T05:41:04.711Z,14.55
2018-11-06T05:43:33.308Z,11.50
2018-11-06T05:46:01.599Z,11.83
2018-11-06T05:48:29.940Z,12.15
2018-11-06T05:50:58.182Z,12.40
2018-11-06T05:53:26.472Z,13.93
2018-11-06T05:55:54.701Z,14.15
2018-11-06T05:58:23.053Z,15.75
2018-11-06T06:00:51.342Z,13.00
2018-11-06T06:03:19.626Z,15.00
2018-11-06T06:05:48.030Z,18.12
2018-11-06T06:08:16.327Z,14.25
2018-11-06T06:10:44.755Z,10.28
2018-11-06T06:13:13.216Z,14.63
2018-11-06T06:15:41.844Z,11.28
2018-11-06T06:18:10.251Z,13.70
2018-11-06T06:20:38.491Z,13.30
2018-11-06T06:23:06.763Z,11.15
2018-11-06T06:25:35.049Z,12.60
2018-11-06T06:28:03.314Z,11.83
2018-11-06T06:30:31.663Z,14.45
2018-11-06T06:32:59.955Z,14.20
2018-11-06T06:35:28.225Z,14.47
2018-11-06T06:37:57.073Z,11.50
2018-11-06T06:40:25.593Z,13.53
2018-11-06T06:42:54.010Z,12.47
2018-11-06T06:45:22.254Z,14.95
2018-11-06T06:47:50.593Z,15.05
2018-11-06T06:50:19.650Z,11.97
2018-11-06T06:52:48.610Z,13.00
2018-11-06T06:55:17.620Z,13.85
2018-11-06T06:57:46.615Z,15.15
2018-11-06T07:00:16.398Z,12.58
2018-11-06T07:02:44.677Z,13.83
2018-11-06T07:05:14.294Z,15.78
2018-11-06T07:07:43.395Z,14.75
2018-11-06T07:10:13.706Z,19.35
2018-11-06T07:12:43.374Z,17.40
2018-11-06T07:15:13.806Z,19.52
2018-11-06T07:17:42.845Z,21.65
2018-11-06T07:20:14.310Z,22.20
2018-11-06T07:22:42.609Z,19.25
2018-11-06T07:25:11.624Z,15.08
2018-11-06T07:27:40.762Z,16.55
2018-11-06T07:30:14.818Z,14.18
2018-11-06T07:32:44.085Z,16.05
2018-11-06T07:35:13.258Z,17.82
2018-11-06T07:37:42.076Z,13.62
2018-11-06T07:40:12.850Z,17.62
2018-11-06T07:42:41.393Z,14.55
2018-11-06T07:45:15.886Z,13.65
2018-11-06T07:47:44.372Z,15.48
2018-11-06T07:50:13.546Z,20.43
2018-11-06T07:52:42.084Z,17.15
2018-11-06T07:55:13.223Z,16.12
2018-11-06T07:57:41.543Z,13.45
2018-11-06T08:00:17.083Z,16.30
2018-11-06T08:02:46.240Z,13.43
2018-11-06T08:05:15.099Z,15.75
2018-11-06T08:07:44.222Z,10.10
2018-11-06T08:10:12.570Z,11.12
2018-11-06T08:12:42.607Z,9.68
2018-11-06T08:15:11.482Z,10.50
2018-11-06T08:17:40.110Z,14.23
2018-11-06T08:20:08.561Z,11.40
2018-11-06T08:22:37.236Z,10.63
2018-11-06T08:25:05.973Z,9.35
2018-11-06T08:27:34.363Z,8.95
2018-11-06T08:30:02.704Z,9.00
2018-11-06T08:32:31.716Z,9.15
2018-11-06T08:34:59.394Z,9.15
2018-11-06T08:37:27.630Z,10.05
2018-11-06T08:39:55.908Z,13.95
2018-11-06T08:42:24.196Z,9.08
2018-11-06T08:44:52.463Z,10.30
2018-11-06T08:47:20.751Z,9.35
2018-11-06T08:49:49.011Z,7.92
2018-11-06T08:52:17.282Z,9.33
2018-11-06T08:54:45.667Z,9.88
2018-11-06T08:57:13.864Z,10.27
2018-11-06T08:59:42.323Z,8.85
2018-11-06T09:02:10.820Z,14.03
2018-11-06T09:04:39.139Z,9.40
2018-11-06T09:07:07.624Z,8.83
2018-11-06T09:09:35.926Z,11.68
2018-11-06T09:12:04.219Z,12.53
2018-11-06T09:14:32.478Z,9.13
2018-11-06T09:17:00.830Z,9.75
2018-11-06T09:19:29.070Z,23.70
2018-11-06T09:21:57.394Z,17.00
2018-11-06T09:24:25.862Z,15.30
2018-11-06T09:26:54.103Z,13.83
2018-11-06T09:29:22.407Z,9.50
2018-11-06T09:31:50.648Z,10.60
2018-11-06T09:34:18.932Z,11.03
2018-11-06T09:36:47.263Z,13.23
2018-11-06T09:39:15.537Z,9.30
2018-11-06T09:41:43.836Z,10.80
2018-11-06T09:44:12.138Z,10.40
2018-11-06T09:46:40.586Z,11.83
2018-11-06T09:49:08.883Z,10.73
2018-11-06T09:51:37.385Z,10.73
2018-11-06T09:54:06.167Z,12.07
2018-11-06T09:56:34.475Z,9.37
2018-11-06T09:59:02.953Z,11.47
2018-11-06T10:01:31.287Z,10.23
2018-11-06T10:03:59.538Z,9.93
2018-11-06T10:06:27.928Z,11.20
2018-11-06T10:08:56.161Z,17.23
2018-11-06T10:11:24.476Z,9.37
2018-11-06T10:13:52.705Z,9.33
2018-11-06T10:16:21.009Z,13.53
2018-11-06T10:18:49.471Z,12.07
2018-11-06T10:21:17.738Z,15.17
2018-11-06T10:23:45.918Z,12.53
2018-11-06T10:26:14.198Z,12.20
2018-11-06T10:28:42.419Z,9.73
2018-11-06T10:31:10.786Z,10.77
2018-11-06T10:33:39.047Z,9.83
2018-11-06T10:36:07.303Z,14.40
2018-11-06T10:38:35.540Z,9.43
2018-11-06T10:41:03.810Z,11.73
2018-11-06T10:43:32.156Z,16.10
2018-11-06T10:46:00.427Z,9.37
2018-11-06T10:48:31.753Z,9.90
2018-11-06T10:50:59.982Z,9.77
2018-11-06T10:53:28.327Z,11.77
2018-11-06T10:55:56.578Z,13.10
2018-11-06T10:58:24.883Z,12.17
2018-11-06T11:00:58.494Z,8.53
2018-11-06T11:03:32.906Z,9.70
2018-11-06T11:06:01.351Z,9.70
2018-11-06T11:08:29.671Z,12.83
2018-11-06T11:10:58.252Z,9.43
2018-11-06T11:13:26.601Z,9.20
2018-11-06T11:15:54.858Z,10.00
2018-11-06T11:18:23.095Z,14.60
2018-11-06T11:20:51.370Z,10.10
2018-11-06T11:23:19.878Z,12.23
2018-11-06T11:25:48.430Z,8.13
2018-11-06T11:28:16.811Z,12.17
2018-11-06T11:30:45.117Z,9.27
2018-11-06T11:33:13.404Z,12.77
2018-11-06T11:35:41.739Z,10.63
2018-11-06T11:38:09.972Z,14.20
2018-11-06T11:40:38.211Z,10.60
2018-11-06T11:43:06.535Z,12.90
2018-11-06T11:45:34.876Z,8.57
2018-11-06T11:48:03.179Z,17.30
2018-11-06T11:50:31.481Z,9.37
2018-11-06T11:52:59.695Z,11.83
2018-11-06T11:55:27.969Z,12.07
2018-11-06T11:57:56.322Z,11.17
2018-11-06T12:00:27.275Z,13.33
2018-11-06T12:02:56.089Z,11.40
2018-11-06T12:05:24.327Z,12.13
2018-11-06T12:07:52.615Z,12.30
2018-11-06T12:10:20.905Z,15.60
2018-11-06T12:12:49.278Z,10.70
2018-11-06T12:15:19.529Z,17.70
2018-11-06T12:17:48.279Z,12.83
2018-11-06T12:20:17.532Z,15.33
2018-11-06T12:22:45.934Z,11.23
2018-11-06T12:25:14.636Z,12.27
2018-11-06T12:27:43.025Z,14.50
2018-11-06T12:30:14.395Z,11.43
2018-11-06T12:32:42.856Z,11.30
2018-11-06T12:35:12.006Z,13.40
2018-11-06T12:37:40.635Z,13.37
2018-11-06T12:40:10.370Z,13.00
2018-11-06T12:42:39.459Z,13.60
2018-11-06T12:45:09.648Z,12.63
2018-11-06T12:47:38.031Z,12.80
2018-11-06T12:50:07.251Z,10.17
2018-11-06T12:52:35.620Z,12.37
2018-11-06T12:55:04.874Z,13.53
2018-11-06T12:57:33.318Z,14.20
2018-11-06T13:00:01.611Z,12.43
2018-11-06T13:02:30.111Z,12.50
2018-11-06T13:04:58.657Z,13.07
2018-11-06T13:07:27.052Z,11.17
2018-11-06T13:09:55.345Z,12.83
2018-11-06T13:12:23.694Z,12.60
2018-11-06T13:14:52.050Z,18.30
2018-11-06T13:17:20.326Z,12.80
2018-11-06T13:19:48.672Z,10.50
2018-11-06T13:22:17.062Z,16.60
2018-11-06T13:24:45.441Z,13.80
2018-11-06T13:27:13.740Z,12.77
2018-11-06T13:29:42.046Z,12.43
2018-11-06T13:32:10.422Z,11.00
2018-11-06T13:34:38.774Z,15.60
2018-11-06T13:37:07.061Z,13.20
2018-11-06T13:39:35.352Z,13.10
2018-11-06T13:42:03.664Z,9.93
2018-11-06T13:44:32.220Z,11.23
2018-11-06T13:47:00.183Z,10.47
2018-11-06T13:49:28.486Z,15.40
2018-11-06T13:51:56.869Z,13.30
2018-11-06T13:54:25.167Z,10.50
2018-11-06T13:56:53.434Z,17.30
2018-11-06T13:59:21.768Z,15.03
2018-11-06T14:01:50.202Z,10.27
2018-11-06T14:04:18.671Z,13.93
2018-11-06T14:06:47.026Z,12.60
2018-11-06T14:09:15.429Z,9.93
2018-11-06T14:11:43.725Z,12.80
2018-11-06T14:14:12.235Z,10.57
2018-11-06T14:16:40.500Z,12.07
2018-11-06T14:19:08.827Z,10.70
2018-11-06T14:21:37.148Z,10.60
2018-11-06T14:24:05.577Z,13.00
2018-11-06T14:26:33.860Z,12.60
2018-11-06T14:29:02.169Z,10.37
2018-11-06T14:31:30.461Z,13.03
2018-11-06T14:33:58.731Z,11.40
2018-11-06T14:36:27.010Z,12.17
2018-11-06T14:38:55.291Z,10.70
2018-11-06T14:41:23.584Z,18.10
2018-11-06T14:43:51.862Z,13.77
2018-11-06T14:46:20.122Z,14.27
2018-11-06T14:48:48.599Z,18.83
2018-11-06T14:51:17.022Z,12.07
2018-11-06T14:53:45.356Z,15.40
2018-11-06T14:56:13.919Z,10.80
2018-11-06T14:58:42.233Z,11.00
2018-11-06T15:01:10.542Z,10.70
2018-11-06T15:03:38.894Z,11.13
2018-11-06T15:06:07.222Z,12.27
2018-11-06T15:08:35.489Z,14.97
2018-11-06T15:11:03.855Z,13.17
2018-11-06T15:13:32.106Z,16.03
2018-11-06T15:16:00.423Z,15.00
2018-11-06T15:18:28.748Z,14.30
2018-11-06T15:20:57.123Z,18.93
2018-11-06T15:23:25.280Z,18.77
2018-11-06T15:25:53.630Z,16.77
2018-11-06T15:28:22.027Z,21.03
2018-11-06T15:30:50.367Z,19.43
2018-11-06T15:33:18.664Z,24.43
2018-11-06T15:35:46.971Z,17.10
2018-11-06T15:38:15.269Z,17.07
2018-11-06T15:40:43.565Z,17.87
2018-11-06T15:43:11.895Z,21.03
2018-11-06T15:45:40.280Z,16.33
2018-11-06T15:48:08.579Z,15.27
2018-11-06T15:50:36.850Z,16.10
2018-11-06T15:53:05.569Z,17.67
2018-11-06T15:55:33.975Z,14.33
2018-11-06T15:58:02.279Z,16.80
2018-11-06T16:00:31.185Z,16.90
2018-11-06T16:02:59.556Z,15.97
2018-11-06T16:05:27.814Z,17.03
2018-11-06T16:07:56.119Z,15.57
2018-11-06T16:10:24.392Z,16.37
2018-11-06T16:12:52.751Z,22.03
2018-11-06T16:15:21.201Z,16.50
2018-11-06T16:17:49.474Z,18.57
2018-11-06T16:20:19.219Z,16.60
2018-11-06T16:22:47.761Z,17.80
2018-11-06T16:25:17.075Z,17.20
2018-11-06T16:27:45.885Z,21.90
2018-11-06T16:30:17.711Z,18.43
2018-11-06T16:32:46.251Z,17.10
2018-11-06T16:35:18.012Z,20.00
2018-11-06T16:37:47.183Z,19.70
2018-11-06T16:40:15.987Z,21.70
2018-11-06T16:42:45.113Z,16.20
2018-11-06T16:45:17.432Z,17.77
2018-11-06T16:47:47.203Z,20.20
2018-11-06T16:50:16.478Z,22.63
2018-11-06T16:52:44.744Z,19.50
2018-11-06T16:55:13.380Z,19.50
2018-11-06T16:57:42.593Z,20.17
2018-11-06T17:00:13.132Z,19.13
2018-11-06T17:02:41.735Z,23.30
2018-11-06T17:05:11.929Z,17.37
2018-11-06T17:07:40.421Z,20.83
2018-11-06T17:10:10.951Z,22.20
2018-11-06T17:12:39.287Z,23.30
2018-11-06T17:15:09.771Z,23.73
2018-11-06T17:17:38.135Z,29.13
2018-11-06T17:20:08.547Z,28.00
2018-11-06T17:22:36.979Z,27.60
2018-11-06T17:25:06.443Z,22.43
2018-11-06T17:27:34.707Z,26.20
2018-11-06T17:30:03.025Z,18.50
2018-11-06T17:32:31.436Z,23.03
2018-11-06T17:34:59.695Z,20.53
2018-11-06T17:37:27.987Z,23.23
2018-11-06T17:39:56.268Z,25.70
2018-11-06T17:42:24.738Z,31.37
2018-11-06T17:44:53.054Z,26.83
2018-11-06T17:47:21.428Z,20.93
2018-11-06T17:49:49.696Z,27.63
2018-11-06T17:52:18.226Z,25.90
2018-11-06T17:54:46.485Z,22.37
2018-11-06T17:57:14.997Z,23.37
2018-11-06T17:59:43.373Z,21.80
2018-11-06T18:02:11.862Z,24.30
2018-11-06T18:04:40.188Z,31.60
2018-11-06T18:07:08.489Z,25.53
2018-11-06T18:09:36.971Z,27.77
2018-11-06T18:12:05.826Z,26.57
2018-11-06T18:14:34.510Z,25.07
2018-11-06T18:17:02.884Z,25.07
2018-11-06T18:19:31.491Z,25.90
2018-11-06T18:21:59.896Z,28.70
2018-11-06T18:24:28.309Z,22.10
2018-11-06T18:26:57.149Z,23.40
2018-11-06T18:29:25.498Z,23.40
2018-11-06T18:31:53.837Z,25.50
2018-11-06T18:34:22.100Z,22.37
2018-11-06T18:36:50.387Z,23.45
2018-11-06T18:39:19.526Z,25.47
2018-11-06T18:41:47.841Z,28.03
2018-11-06T18:44:16.279Z,23.53
2018-11-06T18:46:44.506Z,31.23
2018-11-06T18:49:13.039Z,27.37
2018-11-06T18:51:41.314Z,22.03
2018-11-06T18:54:09.984Z,24.80
2018-11-06T18:56:38.251Z,21.20
2018-11-06T18:59:06.642Z,27.43
2018-11-06T19:01:35.966Z,22.73
2018-11-06T19:04:05.529Z,32.70
2018-11-06T19:06:33.797Z,24.70
2018-11-06T19:09:02.174Z,42.30
2018-11-06T19:11:30.509Z,28.33
2018-11-06T19:13:58.794Z,24.07
2018-11-06T19:16:27.157Z,23.50
2018-11-06T19:18:55.424Z,23.50
2018-11-06T19:21:23.862Z,21.83
2018-11-06T19:23:52.175Z,23.57
2018-11-06T19:26:20.391Z,23.50
2018-11-06T19:28:48.758Z,26.00
2018-11-06T19:31:17.062Z,22.70
2018-11-06T19:33:45.339Z,20.75
2018-11-06T19:36:13.696Z,19.30
2018-11-06T19:38:42.049Z,25.37
2018-11-06T19:41:10.478Z,16.70
2018-11-06T19:43:38.758Z,19.47
2018-11-06T19:46:07.383Z,18.90
2018-11-06T19:48:35.695Z,16.80
2018-11-06T19:51:04.076Z,18.73
2018-11-06T19:53:32.415Z,16.25
2018-11-06T19:56:00.644Z,17.73
2018-11-06T19:58:28.985Z,28.33
2018-11-06T20:00:57.341Z,19.67
2018-11-06T20:03:25.704Z,20.85
2018-11-06T20:05:54.217Z,18.55
2018-11-06T20:08:22.499Z,19.77
2018-11-06T20:10:50.892Z,16.33
2018-11-06T20:13:19.175Z,18.82
2018-11-06T20:15:47.528Z,18.37
2018-11-06T20:18:15.872Z,22.25
2018-11-06T20:20:44.131Z,17.20
2018-11-06T20:23:12.611Z,16.40
2018-11-06T20:25:40.869Z,19.70
2018-11-06T20:28:09.366Z,17.17
2018-11-06T20:30:37.656Z,19.83
2018-11-06T20:33:06.171Z,23.67
2018-11-06T20:35:34.510Z,22.02
2018-11-06T20:38:02.851Z,18.50
2018-11-06T20:40:31.165Z,20.10
2018-11-06T20:42:59.615Z,19.07
2018-11-06T20:45:27.891Z,20.40
2018-11-06T20:47:56.275Z,18.90
2018-11-06T20:50:25.158Z,23.00
2018-11-06T20:52:53.507Z,19.87
2018-11-06T20:55:21.753Z,16.52
2018-11-06T20:57:50.141Z,20.05
2018-11-06T21:00:23.475Z,20.00
2018-11-06T21:02:53.098Z,18.67
2018-11-06T21:05:21.367Z,22.50
2018-11-06T21:07:49.819Z,19.85
2018-11-06T21:10:19.611Z,18.25
2018-11-06T21:12:48.285Z,23.15
2018-11-06T21:15:16.709Z,21.80
2018-11-06T21:17:45.304Z,23.00
2018-11-06T21:20:14.391Z,25.70
2018-11-06T21:22:42.829Z,22.55
2018-11-06T21:25:11.493Z,21.95
2018-11-06T21:27:40.380Z,20.97
2018-11-06T21:30:10.262Z,21.30
2018-11-06T21:32:39.298Z,19.55
2018-11-06T21:35:07.682Z,27.90
2018-11-06T21:37:35.979Z,22.73
2018-11-06T21:40:04.779Z,23.15
2018-11-06T21:42:33.203Z,22.15
2018-11-06T21:45:01.476Z,23.10
2018-11-06T21:47:29.854Z,20.32
2018-11-06T21:49:58.147Z,29.15
2018-11-06T21:52:26.390Z,24.35
2018-11-06T21:54:54.731Z,18.35
2018-11-06T21:57:23.016Z,20.57
2018-11-06T21:59:51.501Z,19.15
2018-11-06T22:02:19.923Z,21.40
2018-11-06T22:04:48.262Z,18.67
2018-11-06T22:07:16.597Z,23.77
2018-11-06T22:09:45.134Z,22.27
2018-11-06T22:12:13.493Z,27.77
2018-11-06T22:14:41.787Z,26.68
2018-11-06T22:17:10.111Z,21.23
2018-11-06T22:19:38.390Z,21.85
2018-11-06T22:22:06.852Z,20.15
2018-11-06T22:24:35.317Z,18.52
2018-11-06T22:27:03.740Z,20.30
2018-11-06T22:29:32.101Z,17.75
2018-11-06T22:32:00.452Z,16.42
2018-11-06T22:34:28.735Z,24.52
2018-11-06T22:36:57.075Z,17.48
2018-11-06T22:39:25.360Z,20.70
2018-11-06T22:41:53.691Z,16.60
2018-11-06T22:44:21.997Z,17.05
2018-11-06T22:46:50.238Z,24.57
2018-11-06T22:49:18.516Z,21.95
2018-11-06T22:51:46.818Z,18.07
2018-11-06T22:54:15.430Z,19.73
2018-11-06T22:56:43.747Z,17.65
2018-11-06T22:59:12.031Z,20.50
2018-11-06T23:01:40.297Z,22.02
2018-11-06T23:04:08.583Z,20.82
2018-11-06T23:06:37.024Z,21.05
2018-11-06T23:09:07.898Z,20.20
2018-11-06T23:11:36.382Z,20.75
2018-11-06T23:14:04.793Z,18.35
2018-11-06T23:16:33.099Z,16.15
2018-11-06T23:19:01.394Z,19.73
2018-11-06T23:21:29.691Z,20.02
2018-11-06T23:23:57.938Z,17.98
2018-11-06T23:26:26.277Z,17.35
2018-11-06T23:28:54.511Z,19.55
2018-11-06T23:31:23.212Z,21.73
2018-11-06T23:33:51.478Z,16.32
2018-11-06T23:36:19.748Z,16.37
2018-11-06T23:38:47.996Z,16.12
2018-11-06T23:41:16.308Z,17.52
2018-11-06T23:43:44.543Z,21.73
2018-11-06T23:46:12.831Z,16.02
2018-11-06T23:48:41.228Z,17.07
2018-11-06T23:51:09.536Z,15.13
2018-11-06T23:53:37.790Z,17.77
2018-11-06T23:56:06.063Z,17.30
2018-11-06T23:58:34.351Z,17.20
